sensor_id;sensor_type;location;lat;lon;timestamp;pressure;altitude;pressure_sealevel;temperature;humidity
31096;BME280;17749;51.962;8.560;2023-05-22T05:02:49;99815.13;;;18.36;100.00
31096;BME280;17749;51.962;8.560;2023-05-22T05:05:16;99816.97;;;18.36;100.00
31096;BME280;17749;51.962;8.560;2023-05-22T05:07:46;99816.84;;;18.37;100.00
31096;BME280;17749;51.962;8.560;2023-05-22T05:10:16;99811.47;;;18.37;100.00
31096;BME280;17749;51.962;8.560;2023-05-22T05:12:43;99812.22;;;18.39;100.00
31096;BME280;17749;51.962;8.560;2023-05-22T05:15:11;99803.13;;;18.40;100.00
31096;BME280;17749;51.962;8.560;2023-05-22T05:17:38;99798.47;;;18.43;100.00
31096;BME280;17749;51.962;8.560;2023-05-22T05:20:06;99798.00;;;18.49;100.00
31096;BME280;17749;51.962;8.560;2023-05-22T05:22:33;99795.31;;;18.49;100.00
31096;BME280;17749;51.962;8.560;2023-05-22T05:25:02;99798.00;;;18.49;100.00
31096;BME280;17749;51.962;8.560;2023-05-22T05:27:31;99796.06;;;18.51;100.00
31096;BME280;17749;51.962;8.560;2023-05-22T05:29:59;99796.56;;;18.56;100.00
31096;BME280;17749;51.962;8.560;2023-05-22T05:32:39;99801.69;;;18.59;100.00
31096;BME280;17749;51.962;8.560;2023-05-22T05:35:20;99804.41;;;18.59;100.00
31096;BME280;17749;51.962;8.560;2023-05-22T05:37:58;99808.69;;;18.61;100.00
31096;BME280;17749;51.962;8.560;2023-05-22T05:40:26;99799.59;;;18.62;100.00
31096;BME280;17749;51.962;8.560;2023-05-22T05:42:53;99804.78;;;18.66;100.00
31096;BME280;17749;51.962;8.560;2023-05-22T05:45:23;99809.78;;;18.70;100.00
31096;BME280;17749;51.962;8.560;2023-05-22T05:47:51;99813.13;;;18.74;100.00
31096;BME280;17749;51.962;8.560;2023-05-22T05:50:19;99812.06;;;18.76;100.00
31096;BME280;17749;51.962;8.560;2023-05-22T05:52:46;99812.78;;;18.78;100.00
31096;BME280;17749;51.962;8.560;2023-05-22T05:55:17;99815.00;;;18.85;100.00
31096;BME280;17749;51.962;8.560;2023-05-22T05:57:45;99812.81;;;18.90;100.00
31096;BME280;17749;51.962;8.560;2023-05-22T06:00:18;99812.56;;;18.93;100.00
31096;BME280;17749;51.962;8.560;2023-05-22T06:02:48;99810.59;;;18.95;100.00
31096;BME280;17749;51.962;8.560;2023-05-22T06:05:42;99810.84;;;19.03;100.00
31096;BME280;17749;51.962;8.560;2023-05-22T06:08:31;99807.91;;;19.06;100.00
31096;BME280;17749;51.962;8.560;2023-05-22T06:11:00;99805.94;;;19.08;100.00
31096;BME280;17749;51.962;8.560;2023-05-22T06:13:37;99809.13;;;19.13;100.00
31096;BME280;17749;51.962;8.560;2023-05-22T06:16:04;99806.28;;;19.15;100.00
31096;BME280;17749;51.962;8.560;2023-05-22T06:18:33;99810.38;;;19.20;100.00
31096;BME280;17749;51.962;8.560;2023-05-22T06:21:00;99809.84;;;19.26;100.00
31096;BME280;17749;51.962;8.560;2023-05-22T06:23:27;99810.94;;;19.35;100.00
31096;BME280;17749;51.962;8.560;2023-05-22T06:25:54;99814.28;;;19.39;100.00
31096;BME280;17749;51.962;8.560;2023-05-22T06:28:23;99813.03;;;19.43;100.00
31096;BME280;17749;51.962;8.560;2023-05-22T06:30:51;99811.91;;;19.45;100.00
31096;BME280;17749;51.962;8.560;2023-05-22T06:33:20;99806.13;;;19.50;100.00
31096;BME280;17749;51.962;8.560;2023-05-22T06:35:48;99811.03;;;19.56;100.00
31096;BME280;17749;51.962;8.560;2023-05-22T06:38:15;99808.53;;;19.64;100.00
31096;BME280;17749;51.962;8.560;2023-05-22T06:40:43;99808.09;;;19.70;100.00
31096;BME280;17749;51.962;8.560;2023-05-22T06:43:22;99807.06;;;19.83;100.00
31096;BME280;17749;51.962;8.560;2023-05-22T06:46:09;99804.56;;;19.91;100.00
31096;BME280;17749;51.962;8.560;2023-05-22T06:48:47;99804.81;;;19.99;100.00
31096;BME280;17749;51.962;8.560;2023-05-22T06:51:20;99819.22;;;20.09;100.00
31096;BME280;17749;51.962;8.560;2023-05-22T06:53:50;99813.31;;;20.16;100.00
31096;BME280;17749;51.962;8.560;2023-05-22T06:56:23;99805.16;;;20.27;100.00
31096;BME280;17749;51.962;8.560;2023-05-22T06:58:54;99813.72;;;20.32;100.00
31096;BME280;17749;51.962;8.560;2023-05-22T07:01:29;99807.53;;;20.41;100.00
31096;BME280;17749;51.962;8.560;2023-05-22T07:04:03;99806.75;;;20.50;100.00
31096;BME280;17749;51.962;8.560;2023-05-22T07:06:34;99802.28;;;20.61;100.00
31096;BME280;17749;51.962;8.560;2023-05-22T07:09:06;99808.34;;;20.74;100.00
31096;BME280;17749;51.962;8.560;2023-05-22T07:11:34;99801.88;;;20.86;100.00
31096;BME280;17749;51.962;8.560;2023-05-22T07:14:01;99808.75;;;21.00;100.00
31096;BME280;17749;51.962;8.560;2023-05-22T07:16:29;99811.63;;;21.08;100.00
31096;BME280;17749;51.962;8.560;2023-05-22T07:18:59;99810.28;;;21.23;100.00
31096;BME280;17749;51.962;8.560;2023-05-22T07:21:27;99810.59;;;21.30;100.00
31096;BME280;17749;51.962;8.560;2023-05-22T07:23:58;99812.88;;;21.35;100.00
31096;BME280;17749;51.962;8.560;2023-05-22T07:26:26;99812.22;;;21.42;100.00
31096;BME280;17749;51.962;8.560;2023-05-22T07:29:02;99810.13;;;21.56;100.00
31096;BME280;17749;51.962;8.560;2023-05-22T07:31:30;99812.44;;;21.70;100.00
31096;BME280;17749;51.962;8.560;2023-05-22T07:34:00;99811.91;;;21.96;100.00
31096;BME280;17749;51.962;8.560;2023-05-22T07:36:28;99812.75;;;22.16;100.00
31096;BME280;17749;51.962;8.560;2023-05-22T07:38:55;99808.34;;;22.44;100.00
31096;BME280;17749;51.962;8.560;2023-05-22T07:41:24;99818.28;;;22.72;100.00
31096;BME280;17749;51.962;8.560;2023-05-22T07:43:51;99824.66;;;22.91;100.00
31096;BME280;17749;51.962;8.560;2023-05-22T07:46:25;99815.47;;;23.11;100.00
31096;BME280;17749;51.962;8.560;2023-05-22T07:49:08;99817.56;;;23.27;100.00
31096;BME280;17749;51.962;8.560;2023-05-22T07:51:37;99814.09;;;23.35;100.00
31096;BME280;17749;51.962;8.560;2023-05-22T07:54:05;99812.47;;;23.42;100.00
31096;BME280;17749;51.962;8.560;2023-05-22T07:56:34;99823.25;;;23.61;100.00
31096;BME280;17749;51.962;8.560;2023-05-22T07:59:05;99819.75;;;23.79;100.00
31096;BME280;17749;51.962;8.560;2023-05-22T08:01:32;99817.50;;;23.92;100.00
31096;BME280;17749;51.962;8.560;2023-05-22T08:03:59;99823.84;;;24.01;100.00
31096;BME280;17749;51.962;8.560;2023-05-22T08:06:26;99822.00;;;24.01;100.00
31096;BME280;17749;51.962;8.560;2023-05-22T08:08:53;99817.19;;;24.13;100.00
31096;BME280;17749;51.962;8.560;2023-05-22T08:11:20;99819.59;;;24.34;100.00
31096;BME280;17749;51.962;8.560;2023-05-22T08:13:47;99811.09;;;24.55;100.00
31096;BME280;17749;51.962;8.560;2023-05-22T08:16:14;99818.47;;;24.63;100.00
31096;BME280;17749;51.962;8.560;2023-05-22T08:18:41;99820.19;;;24.90;100.00
31096;BME280;17749;51.962;8.560;2023-05-22T08:21:08;99817.88;;;25.29;100.00
31096;BME280;17749;51.962;8.560;2023-05-22T08:23:35;99824.78;;;25.50;100.00
31096;BME280;17749;51.962;8.560;2023-05-22T08:26:05;99814.94;;;25.65;100.00
31096;BME280;17749;51.962;8.560;2023-05-22T08:28:34;99817.78;;;25.98;100.00
31096;BME280;17749;51.962;8.560;2023-05-22T08:31:02;99827.84;;;26.22;100.00
31096;BME280;17749;51.962;8.560;2023-05-22T08:33:29;99820.50;;;26.06;100.00
31096;BME280;17749;51.962;8.560;2023-05-22T08:35:56;99826.78;;;25.90;100.00
31096;BME280;17749;51.962;8.560;2023-05-22T08:38:23;99817.78;;;26.06;100.00
31096;BME280;17749;51.962;8.560;2023-05-22T08:40:52;99819.34;;;26.33;100.00
31096;BME280;17749;51.962;8.560;2023-05-22T08:43:20;99816.97;;;26.55;100.00
31096;BME280;17749;51.962;8.560;2023-05-22T08:45:51;99820.53;;;26.80;100.00
31096;BME280;17749;51.962;8.560;2023-05-22T08:48:22;99825.97;;;26.96;100.00
31096;BME280;17749;51.962;8.560;2023-05-22T08:50:52;99813.97;;;27.05;99.16
31096;BME280;17749;51.962;8.560;2023-05-22T08:53:24;99811.31;;;26.89;96.89
31096;BME280;17749;51.962;8.560;2023-05-22T08:55:53;99810.59;;;26.95;99.02
31096;BME280;17749;51.962;8.560;2023-05-22T08:58:21;99812.06;;;27.30;98.55
31096;BME280;17749;51.962;8.560;2023-05-22T09:00:48;99810.78;;;27.49;95.91
31096;BME280;17749;51.962;8.560;2023-05-22T09:03:15;99811.53;;;27.66;95.28
31096;BME280;17749;51.962;8.560;2023-05-22T09:05:44;99803.34;;;27.97;95.68
31096;BME280;17749;51.962;8.560;2023-05-22T09:08:11;99804.09;;;28.14;93.82
31096;BME280;17749;51.962;8.560;2023-05-22T09:10:46;99803.13;;;28.30;90.94
31096;BME280;17749;51.962;8.560;2023-05-22T09:13:24;99806.88;;;28.29;92.83
31096;BME280;17749;51.962;8.560;2023-05-22T09:15:52;99804.44;;;28.34;90.66
31096;BME280;17749;51.962;8.560;2023-05-22T09:18:20;99802.47;;;28.66;91.15
31096;BME280;17749;51.962;8.560;2023-05-22T09:20:49;99801.41;;;29.05;91.92
31096;BME280;17749;51.962;8.560;2023-05-22T09:23:16;99803.66;;;29.31;89.86
31096;BME280;17749;51.962;8.560;2023-05-22T09:25:43;99804.91;;;29.28;88.11
31096;BME280;17749;51.962;8.560;2023-05-22T09:28:11;99812.44;;;29.26;87.29
31096;BME280;17749;51.962;8.560;2023-05-22T09:30:39;99804.22;;;29.26;86.65
31096;BME280;17749;51.962;8.560;2023-05-22T09:33:11;99805.94;;;29.27;88.29
31096;BME280;17749;51.962;8.560;2023-05-22T09:35:38;99801.69;;;29.25;87.18
31096;BME280;17749;51.962;8.560;2023-05-22T09:38:09;99803.28;;;29.49;87.00
31096;BME280;17749;51.962;8.560;2023-05-22T09:40:38;99795.13;;;29.70;87.02
31096;BME280;17749;51.962;8.560;2023-05-22T09:43:07;99798.41;;;30.02;86.16
31096;BME280;17749;51.962;8.560;2023-05-22T09:45:35;99804.00;;;30.09;86.03
31096;BME280;17749;51.962;8.560;2023-05-22T09:48:08;99803.69;;;30.40;85.26
31096;BME280;17749;51.962;8.560;2023-05-22T09:50:35;99796.31;;;30.69;83.79
31096;BME280;17749;51.962;8.560;2023-05-22T09:53:03;99802.19;;;30.87;83.10
31096;BME280;17749;51.962;8.560;2023-05-22T09:55:31;99792.34;;;30.78;82.79
31096;BME280;17749;51.962;8.560;2023-05-22T09:58:02;99797.31;;;30.61;82.12
31096;BME280;17749;51.962;8.560;2023-05-22T10:00:32;99795.75;;;30.80;83.36
31096;BME280;17749;51.962;8.560;2023-05-22T10:03:09;99800.66;;;31.13;81.86
31096;BME280;17749;51.962;8.560;2023-05-22T10:05:47;99796.25;;;30.62;78.94
31096;BME280;17749;51.962;8.560;2023-05-22T10:08:17;99794.97;;;30.36;82.96
31096;BME280;17749;51.962;8.560;2023-05-22T10:10:49;99790.97;;;30.61;83.53
31096;BME280;17749;51.962;8.560;2023-05-22T10:13:17;99790.56;;;30.64;82.10
31096;BME280;17749;51.962;8.560;2023-05-22T10:15:46;99781.31;;;30.71;83.02
31096;BME280;17749;51.962;8.560;2023-05-22T10:18:15;99790.34;;;30.87;82.74
31096;BME280;17749;51.962;8.560;2023-05-22T10:20:43;99785.56;;;30.74;80.56
31096;BME280;17749;51.962;8.560;2023-05-22T10:23:13;99784.75;;;30.80;81.92
31096;BME280;17749;51.962;8.560;2023-05-22T10:25:43;99791.28;;;31.00;79.81
31096;BME280;17749;51.962;8.560;2023-05-22T10:28:12;99793.84;;;31.09;78.70
31096;BME280;17749;51.962;8.560;2023-05-22T10:33:40;99778.72;;;30.91;79.60
31096;BME280;17749;51.962;8.560;2023-05-22T10:36:18;99779.81;;;30.69;79.16
31096;BME280;17749;51.962;8.560;2023-05-22T10:38:58;99774.91;;;30.64;80.04
31096;BME280;17749;51.962;8.560;2023-05-22T10:41:38;99777.13;;;30.26;80.14
31096;BME280;17749;51.962;8.560;2023-05-22T10:44:06;99774.72;;;30.38;82.17
31096;BME280;17749;51.962;8.560;2023-05-22T10:46:32;99770.63;;;30.27;81.52
31096;BME280;17749;51.962;8.560;2023-05-22T10:49:00;99772.00;;;30.66;81.91
31096;BME280;17749;51.962;8.560;2023-05-22T10:51:27;99772.69;;;31.09;80.46
31096;BME280;17749;51.962;8.560;2023-05-22T10:53:59;99771.78;;;30.95;79.51
31096;BME280;17749;51.962;8.560;2023-05-22T10:56:32;99767.72;;;30.91;79.82
31096;BME280;17749;51.962;8.560;2023-05-22T10:59:03;99773.88;;;30.93;79.54
31096;BME280;17749;51.962;8.560;2023-05-22T11:01:31;99770.66;;;30.62;80.96
31096;BME280;17749;51.962;8.560;2023-05-22T11:04:12;99770.88;;;30.32;80.83
31096;BME280;17749;51.962;8.560;2023-05-22T11:06:49;99766.88;;;30.34;82.06
31096;BME280;17749;51.962;8.560;2023-05-22T11:09:29;99765.16;;;30.12;81.66
31096;BME280;17749;51.962;8.560;2023-05-22T11:12:17;99764.03;;;29.85;81.45
31096;BME280;17749;51.962;8.560;2023-05-22T11:15:14;99766.72;;;30.21;82.28
31096;BME280;17749;51.962;8.560;2023-05-22T11:17:44;99753.03;;;30.49;80.80
31096;BME280;17749;51.962;8.560;2023-05-22T11:20:19;99758.00;;;30.61;80.30
31096;BME280;17749;51.962;8.560;2023-05-22T11:23:02;99755.41;;;30.52;79.22
31096;BME280;17749;51.962;8.560;2023-05-22T11:25:35;99752.59;;;30.74;80.99
31096;BME280;17749;51.962;8.560;2023-05-22T11:28:04;99754.44;;;30.67;81.27
31096;BME280;17749;51.962;8.560;2023-05-22T11:30:32;99747.50;;;30.21;79.91
31096;BME280;17749;51.962;8.560;2023-05-22T11:33:00;99749.97;;;29.95;82.43
31096;BME280;17749;51.962;8.560;2023-05-22T11:35:28;99751.88;;;30.15;84.53
31096;BME280;17749;51.962;8.560;2023-05-22T11:37:55;99749.53;;;30.12;83.92
31096;BME280;17749;51.962;8.560;2023-05-22T11:40:26;99740.03;;;30.36;83.47
31096;BME280;17749;51.962;8.560;2023-05-22T11:42:55;99744.00;;;30.55;82.41
31096;BME280;17749;51.962;8.560;2023-05-22T11:45:22;99742.25;;;30.76;82.87
31096;BME280;17749;51.962;8.560;2023-05-22T11:47:50;99743.09;;;31.11;80.72
31096;BME280;17749;51.962;8.560;2023-05-22T11:50:17;99735.97;;;31.23;81.37
31096;BME280;17749;51.962;8.560;2023-05-22T11:53:04;99741.94;;;30.92;80.42
31096;BME280;17749;51.962;8.560;2023-05-22T11:55:33;99730.34;;;30.69;79.87
31096;BME280;17749;51.962;8.560;2023-05-22T11:58:00;99724.81;;;30.90;82.04
31096;BME280;17749;51.962;8.560;2023-05-22T12:00:29;99727.50;;;31.25;80.51
31096;BME280;17749;51.962;8.560;2023-05-22T12:02:57;99719.94;;;31.34;81.62
31096;BME280;17749;51.962;8.560;2023-05-22T12:05:24;99722.13;;;31.45;81.09
31096;BME280;17749;51.962;8.560;2023-05-22T12:07:51;99711.13;;;31.52;80.58
31096;BME280;17749;51.962;8.560;2023-05-22T12:10:19;99704.81;;;31.58;80.51
31096;BME280;17749;51.962;8.560;2023-05-22T12:12:46;99707.16;;;31.74;78.59
31096;BME280;17749;51.962;8.560;2023-05-22T12:15:17;99702.69;;;31.60;79.77
31096;BME280;17749;51.962;8.560;2023-05-22T12:17:45;99712.78;;;31.39;80.31
31096;BME280;17749;51.962;8.560;2023-05-22T12:20:12;99702.44;;;31.48;81.25
31096;BME280;17749;51.962;8.560;2023-05-22T12:22:41;99705.09;;;31.96;80.76
31096;BME280;17749;51.962;8.560;2023-05-22T12:25:15;99698.13;;;32.20;78.90
31096;BME280;17749;51.962;8.560;2023-05-22T12:27:46;99702.34;;;32.36;79.17
31096;BME280;17749;51.962;8.560;2023-05-22T12:30:13;99708.28;;;32.53;79.38
31096;BME280;17749;51.962;8.560;2023-05-22T12:32:45;99698.94;;;32.67;78.98
31096;BME280;17749;51.962;8.560;2023-05-22T12:35:16;99710.34;;;32.78;78.29
31096;BME280;17749;51.962;8.560;2023-05-22T12:37:50;99705.22;;;32.88;78.71
31096;BME280;17749;51.962;8.560;2023-05-22T12:40:18;99714.75;;;33.12;77.63
31096;BME280;17749;51.962;8.560;2023-05-22T12:42:46;99714.06;;;33.23;77.35
31096;BME280;17749;51.962;8.560;2023-05-22T12:45:13;99705.09;;;33.34;77.76
31096;BME280;17749;51.962;8.560;2023-05-22T12:47:40;99718.19;;;33.46;77.30
31096;BME280;17749;51.962;8.560;2023-05-22T12:50:08;99714.19;;;33.35;77.09
31096;BME280;17749;51.962;8.560;2023-05-22T12:52:35;99707.13;;;33.07;77.95
31096;BME280;17749;51.962;8.560;2023-05-22T12:55:02;99705.66;;;32.91;78.11
31096;BME280;17749;51.962;8.560;2023-05-22T12:57:29;99701.91;;;32.59;79.07
31096;BME280;17749;51.962;8.560;2023-05-22T12:59:56;99712.94;;;32.59;79.77
31096;BME280;17749;51.962;8.560;2023-05-22T13:02:24;99712.53;;;32.62;79.49
31096;BME280;17749;51.962;8.560;2023-05-22T13:04:50;99702.31;;;32.69;80.26
31096;BME280;17749;51.962;8.560;2023-05-22T13:07:17;99712.06;;;32.79;79.13
31096;BME280;17749;51.962;8.560;2023-05-22T13:09:45;99706.09;;;32.82;78.90
31096;BME280;17749;51.962;8.560;2023-05-22T13:12:12;99699.75;;;32.74;78.84
31096;BME280;17749;51.962;8.560;2023-05-22T13:14:39;99703.78;;;32.79;78.65
31096;BME280;17749;51.962;8.560;2023-05-22T13:17:06;99699.16;;;32.72;79.65
31096;BME280;17749;51.962;8.560;2023-05-22T13:19:33;99699.59;;;32.56;80.71
31096;BME280;17749;51.962;8.560;2023-05-22T13:22:01;99695.56;;;32.39;82.07
31096;BME280;17749;51.962;8.560;2023-05-22T13:24:28;99701.28;;;32.04;83.01
31096;BME280;17749;51.962;8.560;2023-05-22T13:26:55;99686.69;;;31.97;83.15
31096;BME280;17749;51.962;8.560;2023-05-22T13:29:22;99694.28;;;32.01;84.00
31096;BME280;17749;51.962;8.560;2023-05-22T13:31:49;99691.34;;;32.03;83.76
31096;BME280;17749;51.962;8.560;2023-05-22T13:34:17;99691.09;;;31.84;84.00
31096;BME280;17749;51.962;8.560;2023-05-22T13:36:44;99702.09;;;31.84;86.33
31096;BME280;17749;51.962;8.560;2023-05-22T13:39:11;99697.44;;;31.92;86.28
31096;BME280;17749;51.962;8.560;2023-05-22T13:41:38;99698.97;;;32.01;86.60
31096;BME280;17749;51.962;8.560;2023-05-22T13:44:04;99689.44;;;32.10;85.38
31096;BME280;17749;51.962;8.560;2023-05-22T13:46:31;99687.13;;;32.20;84.79
31096;BME280;17749;51.962;8.560;2023-05-22T13:48:58;99686.25;;;31.93;84.86
31096;BME280;17749;51.962;8.560;2023-05-22T13:51:26;99685.78;;;31.76;85.92
31096;BME280;17749;51.962;8.560;2023-05-22T13:53:53;99681.50;;;31.67;86.58
31096;BME280;17749;51.962;8.560;2023-05-22T13:56:21;99682.75;;;31.44;87.85
31096;BME280;17749;51.962;8.560;2023-05-22T13:58:48;99664.47;;;31.30;88.47
31096;BME280;17749;51.962;8.560;2023-05-22T14:01:15;99662.22;;;30.92;87.04
31096;BME280;17749;51.962;8.560;2023-05-22T14:03:42;99661.28;;;30.78;88.40
31096;BME280;17749;51.962;8.560;2023-05-22T14:06:10;99659.00;;;30.82;88.97
31096;BME280;17749;51.962;8.560;2023-05-22T14:08:37;99655.44;;;30.88;88.34
31096;BME280;17749;51.962;8.560;2023-05-22T14:11:04;99656.03;;;30.84;88.41
31096;BME280;17749;51.962;8.560;2023-05-22T14:13:31;99660.41;;;30.78;88.99
31096;BME280;17749;51.962;8.560;2023-05-22T14:15:59;99667.31;;;31.02;88.13
31096;BME280;17749;51.962;8.560;2023-05-22T14:18:26;99657.66;;;31.13;88.09
31096;BME280;17749;51.962;8.560;2023-05-22T14:20:53;99658.56;;;31.27;88.08
31096;BME280;17749;51.962;8.560;2023-05-22T14:23:20;99665.72;;;31.21;87.42
31096;BME280;17749;51.962;8.560;2023-05-22T14:25:48;99672.16;;;30.87;87.60
31096;BME280;17749;51.962;8.560;2023-05-22T14:28:15;99675.75;;;30.87;88.32
31096;BME280;17749;51.962;8.560;2023-05-22T14:30:41;99687.63;;;30.94;87.16
31096;BME280;17749;51.962;8.560;2023-05-22T14:33:09;99693.47;;;30.85;81.16
31096;BME280;17749;51.962;8.560;2023-05-22T14:35:37;99697.09;;;30.57;77.31
31096;BME280;17749;51.962;8.560;2023-05-22T14:38:04;99694.59;;;30.12;75.78
31096;BME280;17749;51.962;8.560;2023-05-22T14:40:32;99702.84;;;29.48;74.71
31096;BME280;17749;51.962;8.560;2023-05-22T14:42:59;99697.72;;;28.64;74.70
31096;BME280;17749;51.962;8.560;2023-05-22T14:45:26;99701.25;;;28.35;77.60
31096;BME280;17749;51.962;8.560;2023-05-22T14:47:53;99708.63;;;27.96;78.02
31096;BME280;17749;51.962;8.560;2023-05-22T14:50:21;99713.22;;;27.73;77.52
31096;BME280;17749;51.962;8.560;2023-05-22T14:52:48;99722.47;;;27.72;78.54
31096;BME280;17749;51.962;8.560;2023-05-22T14:55:16;99718.06;;;27.63;79.30
31096;BME280;17749;51.962;8.560;2023-05-22T14:57:43;99708.03;;;27.55;77.80
31096;BME280;17749;51.962;8.560;2023-05-22T15:00:11;99699.66;;;27.25;78.84
31096;BME280;17749;51.962;8.560;2023-05-22T15:02:40;99694.97;;;27.03;78.53
31096;BME280;17749;51.962;8.560;2023-05-22T15:05:08;99692.09;;;26.88;77.49
31096;BME280;17749;51.962;8.560;2023-05-22T15:07:35;99701.34;;;26.87;79.33
31096;BME280;17749;51.962;8.560;2023-05-22T15:10:11;99709.41;;;26.72;77.50
31096;BME280;17749;51.962;8.560;2023-05-22T15:12:38;99700.41;;;26.47;78.12
31096;BME280;17749;51.962;8.560;2023-05-22T15:15:06;99700.25;;;26.40;80.22
31096;BME280;17749;51.962;8.560;2023-05-22T15:17:34;99698.75;;;26.13;78.70
31096;BME280;17749;51.962;8.560;2023-05-22T15:20:01;99687.50;;;25.84;80.51
31096;BME280;17749;51.962;8.560;2023-05-22T15:22:28;99690.53;;;25.56;81.88
31096;BME280;17749;51.962;8.560;2023-05-22T15:25:05;99679.63;;;25.56;81.93
31096;BME280;17749;51.962;8.560;2023-05-22T15:27:34;99664.56;;;25.27;82.39
31096;BME280;17749;51.962;8.560;2023-05-22T15:30:02;99657.78;;;25.23;83.75
31096;BME280;17749;51.962;8.560;2023-05-22T15:32:33;99658.72;;;25.14;84.66
31096;BME280;17749;51.962;8.560;2023-05-22T15:35:00;99656.81;;;25.06;85.30
31096;BME280;17749;51.962;8.560;2023-05-22T15:37:28;99662.09;;;25.00;87.05
31096;BME280;17749;51.962;8.560;2023-05-22T15:40:00;99656.66;;;25.00;86.59
31096;BME280;17749;51.962;8.560;2023-05-22T15:42:27;99671.28;;;24.99;87.06
31096;BME280;17749;51.962;8.560;2023-05-22T15:44:55;99697.78;;;24.88;88.26
31096;BME280;17749;51.962;8.560;2023-05-22T15:47:22;99722.84;;;24.58;89.22
31096;BME280;17749;51.962;8.560;2023-05-22T15:49:49;99730.28;;;24.12;93.35
31096;BME280;17749;51.962;8.560;2023-05-22T15:52:16;99719.72;;;23.55;96.19
31096;BME280;17749;51.962;8.560;2023-05-22T15:54:43;99705.56;;;23.33;99.66
31096;BME280;17749;51.962;8.560;2023-05-22T15:57:10;99716.78;;;23.21;100.00
31096;BME280;17749;51.962;8.560;2023-05-22T15:59:37;99750.00;;;23.14;100.00
31096;BME280;17749;51.962;8.560;2023-05-22T16:02:05;99760.53;;;22.90;100.00
31096;BME280;17749;51.962;8.560;2023-05-22T16:04:32;99775.31;;;22.58;100.00
31096;BME280;17749;51.962;8.560;2023-05-22T16:06:59;99761.94;;;21.69;100.00
31096;BME280;17749;51.962;8.560;2023-05-22T16:09:26;99762.88;;;20.98;100.00
31096;BME280;17749;51.962;8.560;2023-05-22T16:11:53;99785.56;;;20.13;100.00
31096;BME280;17749;51.962;8.560;2023-05-22T16:14:20;99793.06;;;19.78;100.00
31096;BME280;17749;51.962;8.560;2023-05-22T16:16:47;99825.00;;;19.84;100.00
31096;BME280;17749;51.962;8.560;2023-05-22T16:19:14;99826.75;;;19.74;100.00
31096;BME280;17749;51.962;8.560;2023-05-22T16:21:41;99835.81;;;19.84;100.00
31096;BME280;17749;51.962;8.560;2023-05-22T16:24:08;99832.09;;;19.85;100.00
31096;BME280;17749;51.962;8.560;2023-05-22T16:26:36;99826.69;;;19.85;100.00
31096;BME280;17749;51.962;8.560;2023-05-22T16:29:06;99810.69;;;19.93;100.00
31096;BME280;17749;51.962;8.560;2023-05-22T16:31:34;99793.25;;;19.97;100.00
31096;BME280;17749;51.962;8.560;2023-05-22T16:34:01;99791.88;;;20.03;100.00
31096;BME280;17749;51.962;8.560;2023-05-22T16:36:29;99790.94;;;19.92;100.00
31096;BME280;17749;51.962;8.560;2023-05-22T16:38:56;99785.78;;;19.89;100.00
31096;BME280;17749;51.962;8.560;2023-05-22T16:41:24;99782.34;;;19.87;100.00
31096;BME280;17749;51.962;8.560;2023-05-22T16:43:52;99783.47;;;19.85;100.00
31096;BME280;17749;51.962;8.560;2023-05-22T16:46:19;99780.28;;;19.80;100.00
31096;BME280;17749;51.962;8.560;2023-05-22T16:48:46;99779.09;;;19.73;100.00
31096;BME280;17749;51.962;8.560;2023-05-22T16:51:14;99778.13;;;19.62;100.00
31096;BME280;17749;51.962;8.560;2023-05-22T16:53:41;99790.69;;;19.41;100.00
31096;BME280;17749;51.962;8.560;2023-05-22T16:56:08;99785.31;;;19.18;100.00
31096;BME280;17749;51.962;8.560;2023-05-22T16:58:35;99776.63;;;19.03;100.00
31096;BME280;17749;51.962;8.560;2023-05-22T17:01:02;99781.66;;;18.97;100.00
31096;BME280;17749;51.962;8.560;2023-05-22T17:03:32;99790.97;;;18.93;100.00
31096;BME280;17749;51.962;8.560;2023-05-22T17:06:00;99794.66;;;18.92;100.00
31096;BME280;17749;51.962;8.560;2023-05-22T17:08:29;99792.19;;;18.89;100.00
31096;BME280;17749;51.962;8.560;2023-05-22T17:10:56;99777.97;;;18.87;100.00
31096;BME280;17749;51.962;8.560;2023-05-22T17:13:23;99772.59;;;18.87;100.00
31096;BME280;17749;51.962;8.560;2023-05-22T17:15:50;99773.31;;;18.89;100.00
31096;BME280;17749;51.962;8.560;2023-05-22T17:18:18;99775.03;;;18.90;100.00
31096;BME280;17749;51.962;8.560;2023-05-22T17:20:46;99774.78;;;18.93;100.00
31096;BME280;17749;51.962;8.560;2023-05-22T17:23:38;99783.38;;;18.98;100.00
31096;BME280;17749;51.962;8.560;2023-05-22T17:26:06;99783.13;;;19.01;100.00
31096;BME280;17749;51.962;8.560;2023-05-22T17:28:33;99790.00;;;19.05;100.00
31096;BME280;17749;51.962;8.560;2023-05-22T17:31:00;99781.75;;;19.07;100.00
31096;BME280;17749;51.962;8.560;2023-05-22T17:33:27;99781.75;;;19.07;100.00
31096;BME280;17749;51.962;8.560;2023-05-22T17:35:54;99771.81;;;19.07;100.00
31096;BME280;17749;51.962;8.560;2023-05-22T17:38:22;99778.97;;;19.08;100.00
31096;BME280;17749;51.962;8.560;2023-05-22T17:40:48;99764.72;;;19.06;100.00
31096;BME280;17749;51.962;8.560;2023-05-22T17:43:16;99755.16;;;19.02;100.00
31096;BME280;17749;51.962;8.560;2023-05-22T17:45:44;99752.69;;;18.99;100.00
31096;BME280;17749;51.962;8.560;2023-05-22T17:48:18;99749.03;;;19.00;100.00
31096;BME280;17749;51.962;8.560;2023-05-22T17:50:49;99744.75;;;18.97;100.00
31096;BME280;17749;51.962;8.560;2023-05-22T17:53:18;99746.47;;;18.87;100.00
31096;BME280;17749;51.962;8.560;2023-05-22T17:55:47;99745.59;;;18.75;100.00
31096;BME280;17749;51.962;8.560;2023-05-22T17:58:15;99745.47;;;18.66;100.00
31096;BME280;17749;51.962;8.560;2023-05-22T18:00:46;99749.22;;;18.52;100.00
31096;BME280;17749;51.962;8.560;2023-05-22T18:03:18;99759.25;;;18.38;100.00
31096;BME280;17749;51.962;8.560;2023-05-22T18:05:49;99778.63;;;18.44;100.00
31096;BME280;17749;51.962;8.560;2023-05-22T18:08:17;99782.47;;;18.52;100.00
31096;BME280;17749;51.962;8.560;2023-05-22T18:10:44;99788.06;;;18.49;100.00